Aérodrome :
LOGIN :

S'inscrire | Disclaimer

   EN    FR    IT 

 










Légende :    VFR   VFR Marginal   IFR   IFR Intensif   IFR Très Intensif
Visi : 
Plafond : 
>= 8 km
>= 3000ft
5 à 8 km
1000 à 3000 ft
1500m à 5 km
500 à 1000 ft
800 à 1500m
200 à 500 ft
< 800m
< 200 ft
Symboles :   Orages  Brouillard  Fortes neiges  Fortes précipitations  Vent > 20 kt
SIGMETs :   Divers  Orages  Givrage  Turbulence  Onde Orograph.  Cendres Volcan.






- Altitude de l'aérodrome : 74 ft
- Code IATA : LRH


LFBH - La Rochelle Ile de Ré

DERNIER METAR :
  • 132030Z AUTO 24010KT 9999 -RA FEW013 BKN029 OVC036 20/17 Q1016 TEMPO BKN010

METARs EXPIRÉS :
  • 132000Z AUTO 26010KT 9999 FEW015 SCT030 BKN035 21/17 Q1016 TEMPO 3000 SHRA BKN010
  • 131930Z AUTO 27011KT 9999 SCT015 BKN025 OVC035 21/17 Q1016 TEMPO 3000 SHRA BKN010
  • 131900Z AUTO 28011KT 9999 BKN013 OVC019 21/17 Q1015 TEMPO 3000 SHRA
  • 131830Z AUTO 29013KT 9999 OVC013 21/18 Q1015 TEMPO 3000 SHRA
  • 131800Z AUTO 29014KT 9999 BKN010/// BKN016/// OVC023/// ///CB 21/18 Q1015 TEMPO 3000 SHRA BKN015TCU

TAF AMD TAF LFBH
Valide du 13 à 18h jusqu'au 14 à 18h UTC


131816Z 1318/1418 27010KT 9999 BKN025
TEMPO 1318/1321 3000 SHRA BKN015TCU
TEMPO 1318/1324 BKN010
ATIS : +33 5 46 00 13 92



MET'MAP, la Météo Aéronautique d'un coup d'oeil ! - Copyright ORBIFLY Décembre 2007 - Disclaimer

ORBIFLY MET'MAP TEAM :

Programmation & Développement : Alexandra Zaïnal
Sur une idée originale de : Baudouin d'Aumeries
Assistance à la programmation : Marc-Olivier Méhu
Soutien technique & logistique : Manuel Goepfert

Contact : metmap@orbifly.com




SOURCES & CREDITS :

   NOAA